Meteo Giornale » Osservazioni meteo Stati Uniti (USA) » Merced
ore: 11:53 - Osservazioni Meteo Merced
Lat. 37° 16' N Lon. 120° 30' W Alt. 47 metri s.l.m.
25 °C
Sereno
Temp. 24 Ore
14 °C
32 °C
Nord-Ovest
13 Km/h
Dew point 12 °C
Umidità 44 %
Visibilità 10 Km
Il sole sorge alle ore 06:32
Il sole tramonta alle ore 19:32
| Data e Ora | Cielo e Fenomeni | T °C | DP °C | Um. % | Pres. hPa | Vis. km | Vento km/h | |
|---|---|---|---|---|---|---|---|---|
| Oggi h: 11:53 | Sereno | 25 | 12 | 44 | 1012 | 10 | NO 13 | |
| Oggi h: 10:53 | Sereno | 23 | 11 | 46 | 1012 | 10 | NO 13 | |
| Oggi h: 09:53 | Sereno | 21 | 11 | 52 | 1012 | 10 | N/NO 13 | |
| Oggi h: 08:53 | Sereno | 19 | 11 | 59 | 1011 | 10 | N/NO 16.7 | |
| Oggi h: 07:53 | Sereno | 17 | 11 | 67 | 1011 | 10 | NO 9.3 | |
| Oggi h: 06:53 | Sereno | 14 | 10 | 76 | 1010 | 10 | O 7.4 | |
| Oggi h: 05:53 | Sereno | 16 | 11 | 72 | 1010 | 10 | N 0 | |
| Oggi h: 04:53 | Sereno | 16 | 11 | 72 | 1010 | 10 | N 5.5 | |
| Oggi h: 03:53 | Sereno | 16 | 11 | 72 | 1010 | 10 | NO 9.3 | |
| Oggi h: 02:53 | Sereno | 17 | 11 | 67 | 1010 | 10 | O 7.4 | |
| Oggi h: 01:53 | Sereno | 17 | 11 | 67 | 1009 | 10 | N 5.5 | |
| Oggi h: 00:53 | Sereno | 17 | 10 | 63 | 1010 | 10 | O 9.3 | |
| Ieri h: 23:53 | Sereno | 18 | 9 | 55 | 1010 | 10 | O 13 | |
| Ieri h: 22:53 | Sereno | 19 | 8 | 48 | 1010 | 10 | O 7.4 | |
| Ieri h: 21:53 | Sereno | 21 | 9 | 46 | 1010 | 10 | O/SO 11.1 | |
| Ieri h: 20:53 | Sereno | 24 | 10 | 41 | 1009 | 10 | NO 9.3 | |
| Ieri h: 19:53 | Sereno | 27 | 9 | 32 | 1009 | 10 | N/NO 9.3 | |
| Ieri h: 18:53 | Sereno | 30 | 6 | 22 | 1008 | 10 | N/NO 11.1 | |
| Ieri h: 17:53 | Sereno | 32 | 3 | 15 | 1009 | 10 | N/NO 11.1 | |
| Ieri h: 16:53 | Sereno | 32 | 6 | 19 | 1009 | 10 | N/NO 14.8 | |
| Ieri h: 15:53 | Sereno | 32 | 6 | 19 | 1009 | 10 | N/NO 13 | |
| Ieri h: 14:53 | Sereno | 32 | 5 | 18 | 1010 | 10 | NO 11.1 | |
| Ieri h: 13:53 | Sereno | 30 | 7 | 23 | 1011 | 10 | O/NO 9.3 | |
| Ieri h: 12:53 | Sereno | 29 | 8 | 26 | 1011 | 10 | NO 13 | |



